Time;durP1;ratioP1;P1;durP2;ratioP2;P2;SDS_P1;SDS_P2;PMS_P1;PMS_P2;Temp;Humidity;BMP_temperature;BMP_pressure;BME280_temperature;BME280_humidity;BME280_pressure;Samples;Min_cycle;Max_cycle;Signal;HPM_P1;HPM_P2
2021/07/26 00:01:20;;;;;;;20.43;14.33;;;;;;;;;;5117141;28;20756;-60
2021/07/26 00:03:48;;;;;;;7.10;4.37;;;;;;;;;;5116817;28;20442;-60
2021/07/26 00:06:16;;;;;;;6.80;4.70;;;;;;;;;;5117549;28;20458;-59
2021/07/26 00:08:43;;;;;;;8.17;5.00;;;;;;;;;;5117396;28;20533;-60
2021/07/26 00:11:13;;;;;;;22.00;17.23;;;;;;;;;;5132266;28;20441;-60
2021/07/26 00:13:41;;;;;;;49.37;36.33;;;;;;;;;;5136883;28;20493;-61
2021/07/26 00:16:09;;;;;;;425.53;285.63;;;;;;;;;;5120524;28;20900;-60
2021/07/26 00:18:36;;;;;;;25.83;16.20;;;;;;;;;;5115835;28;20458;-60
2021/07/26 00:21:04;;;;;;;76.97;55.10;;;;;;;;;;5115686;28;20520;-60
2021/07/26 00:23:31;;;;;;;38.60;27.57;;;;;;;;;;5115064;28;20462;-61
2021/07/26 00:25:59;;;;;;;10.57;8.37;;;;;;;;;;5116107;28;20466;-60
2021/07/26 00:28:27;;;;;;;16.47;6.03;;;;;;;;;;5121267;28;20446;-60
2021/07/26 00:31:04;;;;;;;17.90;14.30;;;;;;;;;;5134871;28;20522;-60
2021/07/26 00:34:07;;;;;;;14.53;12.83;;;;;;;;;;5121505;28;20509;-59
2021/07/26 00:36:35;;;;;;;5.73;4.50;;;;;;;;;;5072441;28;20470;-60
2021/07/26 00:39:03;;;;;;;6.50;4.73;;;;;;;;;;5114113;28;20473;-59
2021/07/26 00:41:30;;;;;;;6.37;4.87;;;;;;;;;;5115168;28;20595;-60
2021/07/26 00:43:59;;;;;;;5.83;3.77;;;;;;;;;;5114939;28;20461;-59
2021/07/26 00:46:27;;;;;;;7.10;4.50;;;;;;;;;;5114857;28;20466;-59
2021/07/26 00:48:54;;;;;;;9.20;4.30;;;;;;;;;;5115234;28;20454;-59
2021/07/26 00:51:22;;;;;;;5.27;4.17;;;;;;;;;;5114943;28;20439;-60
2021/07/26 00:53:50;;;;;;;10.77;7.53;;;;;;;;;;5125564;28;20465;-59
2021/07/26 00:56:17;;;;;;;22.90;18.20;;;;;;;;;;5134970;28;20473;-59
2021/07/26 00:58:45;;;;;;;27.70;20.33;;;;;;;;;;5135069;28;20471;-60
2021/07/26 01:01:14;;;;;;;18.50;13.13;;;;;;;;;;5135039;28;20482;-60
2021/07/26 01:03:43;;;;;;;14.00;10.60;;;;;;;;;;5135071;28;20464;-57
2021/07/26 01:06:10;;;;;;;13.03;8.23;;;;;;;;;;5134031;28;20469;-59
2021/07/26 01:08:37;;;;;;;6.07;4.10;;;;;;;;;;5134993;28;21026;-58
2021/07/26 01:11:04;;;;;;;8.47;5.30;;;;;;;;;;5135523;28;20526;-60
2021/07/26 01:13:32;;;;;;;9.70;4.73;;;;;;;;;;5134915;28;20554;-59
2021/07/26 01:16:00;;;;;;;15.80;9.30;;;;;;;;;;5135671;28;20446;-58
2021/07/26 01:18:30;;;;;;;23.57;19.37;;;;;;;;;;5135403;28;20457;-60
2021/07/26 01:21:00;;;;;;;12.10;8.97;;;;;;;;;;5135524;28;20563;-59
2021/07/26 01:23:51;;;;;;;12.40;8.80;;;;;;;;;;5134364;28;20457;-59
2021/07/26 01:26:19;;;;;;;26.80;20.87;;;;;;;;;;5130401;28;20474;-58
2021/07/26 01:28:48;;;;;;;12.10;9.73;;;;;;;;;;5114884;28;20442;-59
2021/07/26 01:31:15;;;;;;;6.67;4.80;;;;;;;;;;5115339;28;20494;-59
2021/07/26 01:33:44;;;;;;;4.60;3.20;;;;;;;;;;5127066;28;20489;-59
2021/07/26 01:36:12;;;;;;;8.43;4.93;;;;;;;;;;5126368;28;20463;-59
2021/07/26 01:38:45;;;;;;;7.40;6.33;;;;;;;;;;5132364;28;20469;-59
2021/07/26 01:41:17;;;;;;;6.20;4.87;;;;;;;;;;5135039;28;20489;-59
2021/07/26 01:44:01;;;;;;;13.30;8.20;;;;;;;;;;5134974;28;20457;-60
2021/07/26 01:46:49;;;;;;;30.73;15.30;;;;;;;;;;5133986;28;20491;-60
2021/07/26 01:49:23;;;;;;;36.90;32.50;;;;;;;;;;5121307;28;20465;-60
2021/07/26 01:52:07;;;;;;;54.63;37.50;;;;;;;;;;5133059;28;20445;-62
2021/07/26 01:54:34;;;;;;;61.17;46.07;;;;;;;;;;5134767;28;20454;-59
2021/07/26 01:57:02;;;;;;;9.73;7.57;;;;;;;;;;5128307;28;20458;-60
2021/07/26 01:59:39;;;;;;;6.97;4.83;;;;;;;;;;5132271;28;20550;-60
2021/07/26 02:02:06;;;;;;;9.57;5.27;;;;;;;;;;5132817;28;20487;-60
2021/07/26 02:04:34;;;;;;;11.43;6.50;;;;;;;;;;5134869;28;20522;-61
2021/07/26 02:07:14;;;;;;;15.23;8.23;;;;;;;;;;5134122;28;20475;-60
2021/07/26 02:09:41;;;;;;;18.00;11.60;;;;;;;;;;5133042;28;20483;-60
2021/07/26 02:12:09;;;;;;;5.43;3.93;;;;;;;;;;5128982;28;20458;-60
2021/07/26 02:14:47;;;;;;;19.10;11.00;;;;;;;;;;5125918;28;20458;-60
2021/07/26 02:17:14;;;;;;;13.37;8.43;;;;;;;;;;5134199;28;20452;-60
2021/07/26 02:19:41;;;;;;;12.83;5.90;;;;;;;;;;5134565;28;20464;-60
2021/07/26 02:22:19;;;;;;;27.23;20.10;;;;;;;;;;5135584;28;20504;-60
2021/07/26 02:24:47;;;;;;;17.83;12.87;;;;;;;;;;5135373;28;20486;-60
2021/07/26 02:27:15;;;;;;;12.73;10.80;;;;;;;;;;5134155;28;20473;-60
2021/07/26 02:29:51;;;;;;;9.13;5.40;;;;;;;;;;5134904;28;20491;-59
2021/07/26 02:32:18;;;;;;;6.97;4.80;;;;;;;;;;5133194;28;20453;-62
2021/07/26 02:34:45;;;;;;;10.30;7.47;;;;;;;;;;5112763;28;20517;-60
2021/07/26 02:37:32;;;;;;;34.90;29.93;;;;;;;;;;5112119;28;20462;-60
2021/07/26 02:39:59;;;;;;;8.60;6.33;;;;;;;;;;5112281;28;20519;-60
2021/07/26 02:42:27;;;;;;;6.00;3.70;;;;;;;;;;5115447;28;20509;-60
2021/07/26 02:44:57;;;;;;;5.60;4.20;;;;;;;;;;5133277;28;20448;-60
2021/07/26 02:47:24;;;;;;;10.57;4.57;;;;;;;;;;5118933;28;20531;-60
2021/07/26 02:49:54;;;;;;;10.93;7.50;;;;;;;;;;5121921;28;20453;-60
2021/07/26 02:52:33;;;;;;;5.80;3.70;;;;;;;;;;5125070;28;20629;-58
2021/07/26 02:55:12;;;;;;;5.50;4.50;;;;;;;;;;5134239;28;20464;-60
2021/07/26 02:57:39;;;;;;;6.80;4.20;;;;;;;;;;5133205;28;20596;-60
2021/07/26 03:00:08;;;;;;;7.20;3.97;;;;;;;;;;5133790;28;20436;-59
2021/07/26 03:02:36;;;;;;;17.47;15.10;;;;;;;;;;5133006;28;20500;-59
2021/07/26 03:05:05;;;;;;;6.93;4.50;;;;;;;;;;5126167;28;20465;-61
2021/07/26 03:07:34;;;;;;;5.23;3.67;;;;;;;;;;5117172;28;20642;-60
2021/07/26 03:10:01;;;;;;;7.20;4.73;;;;;;;;;;5134174;28;20449;-59
2021/07/26 03:12:28;;;;;;;7.20;4.60;;;;;;;;;;5133437;28;20430;-59
2021/07/26 03:15:32;;;;;;;6.80;4.57;;;;;;;;;;5134097;28;20730;-61
2021/07/26 03:18:01;;;;;;;5.20;3.80;;;;;;;;;;5133997;28;20484;-60
2021/07/26 03:20:30;;;;;;;7.63;4.43;;;;;;;;;;5134713;28;20471;-60
2021/07/26 03:26:09;;;;;;;7.20;3.87;;;;;;;;;;5133487;28;20455;-59
2021/07/26 03:28:37;;;;;;;4.33;3.40;;;;;;;;;;5120457;28;20457;-58
2021/07/26 03:31:22;;;;;;;5.90;4.30;;;;;;;;;;5117540;28;20452;-58
2021/07/26 03:33:54;;;;;;;4.90;3.47;;;;;;;;;;5116233;28;20771;-59
2021/07/26 03:36:31;;;;;;;7.23;4.60;;;;;;;;;;5117868;28;20488;-60
2021/07/26 03:38:58;;;;;;;5.70;3.50;;;;;;;;;;5117401;28;20488;-60
2021/07/26 03:41:30;;;;;;;5.50;3.50;;;;;;;;;;5117553;28;20481;-59
2021/07/26 03:44:17;;;;;;;7.50;4.10;;;;;;;;;;5115071;28;20510;-59
2021/07/26 03:46:44;;;;;;;6.50;3.83;;;;;;;;;;5115314;28;20471;-59
2021/07/26 03:49:11;;;;;;;6.70;3.67;;;;;;;;;;5116332;28;20454;-59
2021/07/26 03:51:49;;;;;;;8.37;4.73;;;;;;;;;;5109913;28;20487;-59
2021/07/26 03:54:17;;;;;;;6.00;3.93;;;;;;;;;;5117107;28;20510;-59
2021/07/26 03:56:47;;;;;;;7.67;4.80;;;;;;;;;;5117053;28;20452;-60
2021/07/26 03:59:15;;;;;;;9.10;5.07;;;;;;;;;;5117546;28;20490;-59
2021/07/26 04:01:48;;;;;;;5.10;3.60;;;;;;;;;;5116714;28;20469;-59
2021/07/26 04:04:16;;;;;;;6.90;3.37;;;;;;;;;;5099353;28;20458;-59
2021/07/26 04:06:48;;;;;;;6.53;3.77;;;;;;;;;;5104917;28;20477;-59
2021/07/26 04:09:17;;;;;;;8.97;3.97;;;;;;;;;;5117155;28;20464;-58
2021/07/26 04:11:46;;;;;;;8.17;4.50;;;;;;;;;;5105767;28;20468;-58
2021/07/26 04:17:20;;;;;;;4.00;3.10;;;;;;;;;;5116814;28;20455;-59
2021/07/26 04:19:47;;;;;;;6.70;3.50;;;;;;;;;;5117064;28;20454;-59
2021/07/26 04:22:24;;;;;;;6.07;3.33;;;;;;;;;;5116826;28;20489;-59
2021/07/26 04:24:51;;;;;;;11.10;4.87;;;;;;;;;;5113675;28;20496;-59
2021/07/26 04:27:18;;;;;;;5.60;3.90;;;;;;;;;;5116541;28;20458;-63
2021/07/26 04:29:47;;;;;;;7.50;3.73;;;;;;;;;;5116999;28;20473;-59
2021/07/26 04:32:14;;;;;;;6.90;4.03;;;;;;;;;;5116220;28;20458;-60
2021/07/26 04:34:43;;;;;;;6.40;4.43;;;;;;;;;;5103113;28;20490;-60
2021/07/26 04:37:15;;;;;;;9.47;3.90;;;;;;;;;;5111200;28;20485;-59
2021/07/26 04:39:43;;;;;;;7.13;3.93;;;;;;;;;;5116530;28;20459;-58
2021/07/26 04:42:10;;;;;;;7.63;3.83;;;;;;;;;;5116140;28;20470;-58
2021/07/26 04:44:51;;;;;;;10.43;3.50;;;;;;;;;;5115753;28;20466;-59
2021/07/26 04:47:18;;;;;;;4.17;3.07;;;;;;;;;;5098768;28;20522;-59
2021/07/26 04:49:47;;;;;;;9.00;3.67;;;;;;;;;;5109063;28;20450;-59
2021/07/26 04:52:30;;;;;;;6.73;4.10;;;;;;;;;;5116775;28;20457;-59
2021/07/26 04:54:57;;;;;;;8.87;5.10;;;;;;;;;;5108517;28;20483;-59
2021/07/26 04:57:26;;;;;;;8.27;4.20;;;;;;;;;;5116513;28;20474;-60
2021/07/26 05:00:01;;;;;;;5.67;4.20;;;;;;;;;;5116610;28;20487;-59
2021/07/26 05:02:29;;;;;;;8.87;4.30;;;;;;;;;;5115989;28;20481;-60
2021/07/26 05:04:57;;;;;;;8.17;4.00;;;;;;;;;;5116539;28;20422;-60
2021/07/26 05:07:34;;;;;;;8.37;4.10;;;;;;;;;;5113070;28;20460;-60
2021/07/26 05:10:03;;;;;;;8.43;4.80;;;;;;;;;;5108544;28;20438;-59
2021/07/26 05:12:30;;;;;;;11.00;5.03;;;;;;;;;;5115909;28;20479;-60
2021/07/26 05:14:59;;;;;;;10.90;4.10;;;;;;;;;;5116402;28;20481;-59
2021/07/26 05:17:27;;;;;;;5.20;3.30;;;;;;;;;;5115581;28;20444;-59
2021/07/26 05:19:54;;;;;;;6.30;3.63;;;;;;;;;;5101236;28;20486;-59
2021/07/26 05:22:39;;;;;;;8.17;4.83;;;;;;;;;;5114580;28;20496;-60
2021/07/26 05:25:07;;;;;;;6.13;4.13;;;;;;;;;;5116159;28;20716;-58
2021/07/26 05:30:17;;;;;;;7.30;4.57;;;;;;;;;;5116320;28;20458;-60
2021/07/26 05:32:46;;;;;;;6.07;3.83;;;;;;;;;;5116301;28;20459;-59
2021/07/26 05:35:14;;;;;;;5.30;3.87;;;;;;;;;;5100950;28;20440;-57
2021/07/26 05:37:43;;;;;;;6.00;4.07;;;;;;;;;;5095634;28;20460;-61
2021/07/26 05:40:11;;;;;;;5.53;3.90;;;;;;;;;;5102282;28;20463;-60
2021/07/26 05:42:57;;;;;;;5.37;3.87;;;;;;;;;;5112265;28;20476;-59
2021/07/26 05:45:32;;;;;;;11.43;4.40;;;;;;;;;;5103414;28;20511;-61
2021/07/26 05:47:59;;;;;;;6.63;3.47;;;;;;;;;;5109160;28;20455;-60
2021/07/26 05:50:31;;;;;;;7.10;4.40;;;;;;;;;;5099965;28;20463;-60
2021/07/26 05:53:00;;;;;;;6.93;4.40;;;;;;;;;;5108724;28;20499;-60
2021/07/26 05:55:27;;;;;;;8.77;4.20;;;;;;;;;;5110024;28;20483;-60
2021/07/26 05:58:16;;;;;;;7.53;3.87;;;;;;;;;;5115263;28;20470;-61
2021/07/26 06:00:46;;;;;;;5.03;2.97;;;;;;;;;;5103071;28;20451;-61
2021/07/26 06:03:17;;;;;;;7.00;4.00;;;;;;;;;;5116332;28;20470;-59
2021/07/26 06:05:46;;;;;;;5.00;3.20;;;;;;;;;;5116335;28;20443;-61
2021/07/26 06:08:15;;;;;;;6.90;3.50;;;;;;;;;;5115874;28;20435;-61
2021/07/26 06:10:42;;;;;;;6.23;3.07;;;;;;;;;;5096184;28;20444;-61
2021/07/26 06:13:40;;;;;;;10.03;4.47;;;;;;;;;;5113002;28;20463;-61
2021/07/26 06:16:09;;;;;;;7.33;3.70;;;;;;;;;;5114485;28;20495;-60
2021/07/26 06:18:40;;;;;;;8.13;3.43;;;;;;;;;;5115712;28;20478;-60
2021/07/26 06:24:21;;;;;;;6.70;3.03;;;;;;;;;;5097820;28;20515;-61
2021/07/26 06:26:49;;;;;;;9.23;3.97;;;;;;;;;;5095670;28;20478;-60
2021/07/26 06:29:20;;;;;;;5.83;3.37;;;;;;;;;;5095615;28;20626;-61
2021/07/26 06:37:16;;;;;;;5.27;3.20;;;;;;;;;;5103815;28;20462;-61
2021/07/26 06:39:45;;;;;;;6.17;3.00;;;;;;;;;;5116045;28;20201;-61
2021/07/26 06:42:44;;;;;;;6.30;4.57;;;;;;;;;;5115480;28;20497;-60
2021/07/26 06:45:15;;;;;;;4.60;2.73;;;;;;;;;;5095620;28;20464;-60
2021/07/26 06:47:45;;;;;;;4.70;3.37;;;;;;;;;;5110646;28;20635;-61
2021/07/26 06:50:32;;;;;;;3.83;2.67;;;;;;;;;;5134301;28;20423;-60
2021/07/26 06:52:59;;;;;;;5.47;2.97;;;;;;;;;;5115102;28;20459;-60
2021/07/26 06:55:29;;;;;;;5.47;2.67;;;;;;;;;;5097350;28;20465;-59
2021/07/26 06:58:00;;;;;;;5.87;3.43;;;;;;;;;;5114917;28;20451;-61
2021/07/26 07:00:27;;;;;;;5.40;2.90;;;;;;;;;;5115472;28;20459;-60
2021/07/26 07:02:54;;;;;;;7.23;4.17;;;;;;;;;;5115394;28;20474;-60
2021/07/26 07:05:32;;;;;;;7.10;3.50;;;;;;;;;;5119417;28;20419;-60
2021/07/26 07:07:59;;;;;;;9.90;3.87;;;;;;;;;;5110590;28;20443;-64
2021/07/26 07:10:30;;;;;;;4.77;3.10;;;;;;;;;;5120026;28;20459;-62
2021/07/26 07:13:04;;;;;;;7.00;4.10;;;;;;;;;;5120183;28;20512;-63
2021/07/26 07:15:33;;;;;;;7.40;3.20;;;;;;;;;;5119217;28;20463;-59
2021/07/26 07:20:44;;;;;;;4.07;2.87;;;;;;;;;;5097448;28;20571;-60
2021/07/26 07:23:12;;;;;;;6.87;2.83;;;;;;;;;;5112879;28;20487;-61
2021/07/26 07:25:44;;;;;;;4.77;3.27;;;;;;;;;;5119136;28;20439;-60
2021/07/26 07:28:22;;;;;;;5.47;3.37;;;;;;;;;;5117939;28;20470;-61
2021/07/26 07:30:50;;;;;;;6.67;3.13;;;;;;;;;;5118039;28;20659;-61
2021/07/26 07:33:17;;;;;;;7.63;3.50;;;;;;;;;;5108977;28;20458;-61
2021/07/26 07:38:48;;;;;;;5.73;2.67;;;;;;;;;;5110716;28;20457;-60
2021/07/26 07:41:18;;;;;;;6.93;3.57;;;;;;;;;;5119667;28;20451;-60
2021/07/26 07:43:49;;;;;;;9.60;6.87;;;;;;;;;;5119241;28;20474;-60
2021/07/26 07:46:19;;;;;;;8.73;4.03;;;;;;;;;;5110903;28;20466;-59
2021/07/26 07:48:48;;;;;;;9.43;6.77;;;;;;;;;;5104843;28;20435;-60
2021/07/26 07:51:48;;;;;;;4.97;3.47;;;;;;;;;;5119594;28;20459;-61
2021/07/26 07:54:15;;;;;;;4.07;3.07;;;;;;;;;;5119084;28;20478;-61
2021/07/26 07:56:52;;;;;;;5.80;3.10;;;;;;;;;;5119826;28;20749;-59
2021/07/26 07:59:22;;;;;;;7.70;4.90;;;;;;;;;;5116449;28;20494;-61
2021/07/26 08:01:53;;;;;;;4.83;3.10;;;;;;;;;;5101346;28;20520;-63
2021/07/26 08:04:20;;;;;;;7.37;4.10;;;;;;;;;;5133636;28;20494;-61
2021/07/26 08:07:01;;;;;;;5.10;3.50;;;;;;;;;;5118951;28;20462;-60
2021/07/26 08:09:28;;;;;;;6.57;3.13;;;;;;;;;;5117845;28;20481;-60
2021/07/26 08:11:57;;;;;;;7.67;4.70;;;;;;;;;;5116107;28;20566;-61
2021/07/26 08:14:46;;;;;;;4.80;3.60;;;;;;;;;;5102056;28;20440;-61
2021/07/26 08:17:16;;;;;;;4.77;3.43;;;;;;;;;;5097543;28;20464;-62
2021/07/26 08:19:44;;;;;;;9.17;5.30;;;;;;;;;;5098291;28;20569;-61
2021/07/26 08:22:12;;;;;;;4.60;3.10;;;;;;;;;;5117847;28;20439;-61
2021/07/26 08:24:50;;;;;;;5.93;3.60;;;;;;;;;;5115546;28;20499;-61
2021/07/26 08:27:42;;;;;;;7.33;4.00;;;;;;;;;;5117813;28;20447;-61
2021/07/26 08:30:13;;;;;;;4.33;3.00;;;;;;;;;;5118290;28;20460;-61
2021/07/26 08:32:40;;;;;;;4.03;2.13;;;;;;;;;;5107979;28;20467;-60
2021/07/26 08:35:35;;;;;;;5.40;3.00;;;;;;;;;;5100979;28;20446;-61
2021/07/26 08:38:02;;;;;;;4.80;3.03;;;;;;;;;;5097903;28;20483;-61
2021/07/26 08:40:36;;;;;;;5.07;3.90;;;;;;;;;;5097489;28;20442;-61
2021/07/26 08:43:10;;;;;;;5.10;2.87;;;;;;;;;;5097207;28;20463;-61
2021/07/26 08:45:39;;;;;;;11.63;4.60;;;;;;;;;;5108468;28;20477;-61
2021/07/26 08:48:09;;;;;;;8.87;4.50;;;;;;;;;;5115578;28;20471;-61
2021/07/26 08:50:39;;;;;;;6.30;3.67;;;;;;;;;;5116692;28;20483;-61
2021/07/26 08:53:07;;;;;;;5.20;3.93;;;;;;;;;;5116501;28;20444;-61
2021/07/26 08:55:36;;;;;;;6.87;4.70;;;;;;;;;;5104436;28;20526;-61
2021/07/26 09:00:58;;;;;;;3.40;2.33;;;;;;;;;;5094961;28;20464;-60
2021/07/26 09:03:32;;;;;;;3.50;2.23;;;;;;;;;;5100669;28;20518;-61
2021/07/26 09:05:59;;;;;;;3.77;2.30;;;;;;;;;;5106325;28;20451;-63
2021/07/26 09:08:32;;;;;;;3.70;2.53;;;;;;;;;;5114292;28;20443;-62
2021/07/26 09:11:01;;;;;;;8.60;2.30;;;;;;;;;;5116127;28;20492;-60
2021/07/26 09:13:36;;;;;;;4.00;1.93;;;;;;;;;;5115920;28;20463;-62
2021/07/26 09:16:37;;;;;;;3.40;1.97;;;;;;;;;;5116457;28;20415;-62
2021/07/26 09:19:07;;;;;;;3.90;2.20;;;;;;;;;;5114383;28;20533;-60
2021/07/26 09:21:52;;;;;;;5.73;2.17;;;;;;;;;;5117665;28;20463;-61
2021/07/26 09:24:32;;;;;;;4.07;2.17;;;;;;;;;;5101198;28;20475;-61
2021/07/26 09:27:09;;;;;;;4.17;2.70;;;;;;;;;;5116847;28;20427;-62
2021/07/26 09:29:42;;;;;;;4.03;2.50;;;;;;;;;;5117574;28;20467;-61
2021/07/26 09:32:13;;;;;;;3.47;1.97;;;;;;;;;;5115950;28;20522;-60
2021/07/26 09:34:42;;;;;;;5.40;2.10;;;;;;;;;;5116906;28;20464;-60
2021/07/26 09:37:18;;;;;;;3.43;2.10;;;;;;;;;;5117336;28;20462;-61
2021/07/26 09:39:47;;;;;;;4.87;2.43;;;;;;;;;;5117790;28;20509;-61
2021/07/26 09:42:27;;;;;;;3.30;2.40;;;;;;;;;;5120764;28;20490;-60
2021/07/26 09:45:30;;;;;;;4.80;2.10;;;;;;;;;;5117474;28;20462;-62
2021/07/26 09:48:07;;;;;;;4.90;2.40;;;;;;;;;;5116821;28;20485;-61
2021/07/26 09:50:39;;;;;;;3.57;2.20;;;;;;;;;;5097829;28;20490;-61
2021/07/26 09:53:12;;;;;;;6.00;3.60;;;;;;;;;;5100898;28;20465;-61
2021/07/26 09:55:41;;;;;;;6.80;4.47;;;;;;;;;;5114034;28;20455;-61
2021/07/26 09:58:13;;;;;;;3.47;1.90;;;;;;;;;;5116852;28;20477;-58
2021/07/26 10:00:41;;;;;;;3.27;2.30;;;;;;;;;;5099061;28;20482;-62
2021/07/26 10:03:11;;;;;;;3.70;1.90;;;;;;;;;;5103536;28;20455;-61
2021/07/26 10:05:47;;;;;;;3.10;2.17;;;;;;;;;;5115592;28;20494;-62
2021/07/26 10:08:14;;;;;;;4.87;2.60;;;;;;;;;;5114909;28;20471;-62
2021/07/26 10:10:42;;;;;;;3.17;2.07;;;;;;;;;;5114668;28;20435;-58
2021/07/26 10:13:17;;;;;;;2.73;1.70;;;;;;;;;;5114424;28;20467;-61
2021/07/26 10:15:47;;;;;;;8.50;6.40;;;;;;;;;;5114603;28;20446;-60
2021/07/26 10:18:15;;;;;;;8.80;6.60;;;;;;;;;;5114606;28;20531;-60
2021/07/26 10:21:01;;;;;;;7.40;6.00;;;;;;;;;;5115622;28;20468;-60
2021/07/26 10:23:33;;;;;;;3.90;2.47;;;;;;;;;;5114803;28;20506;-61
2021/07/26 10:26:13;;;;;;;3.03;2.20;;;;;;;;;;5115523;28;20459;-59
2021/07/26 10:28:43;;;;;;;4.23;2.47;;;;;;;;;;5094870;28;20454;-61
2021/07/26 10:31:30;;;;;;;4.33;2.50;;;;;;;;;;5114747;28;20455;-60
2021/07/26 10:34:02;;;;;;;4.47;2.50;;;;;;;;;;5113647;28;20459;-60
2021/07/26 10:36:44;;;;;;;5.20;3.23;;;;;;;;;;5115000;28;20490;-60
2021/07/26 10:39:23;;;;;;;4.30;2.63;;;;;;;;;;5104353;28;20448;-61
2021/07/26 10:42:02;;;;;;;4.10;2.73;;;;;;;;;;5078005;28;20515;-60
2021/07/26 10:44:47;;;;;;;7.03;2.03;;;;;;;;;;5095382;28;20484;-60
2021/07/26 10:47:24;;;;;;;3.95;2.00;;;;;;;;;;5105368;28;20472;-59
2021/07/26 10:50:16;;;;;;;6.90;2.20;;;;;;;;;;5103158;28;20208;-60
2021/07/26 10:53:04;;;;;;;4.60;2.27;;;;;;;;;;5095917;28;20527;-60
2021/07/26 10:55:59;;;;;;;5.70;2.50;;;;;;;;;;5115655;28;21532;-61
2021/07/26 10:58:46;;;;;;;4.30;2.20;;;;;;;;;;5115891;28;20416;-61
2021/07/26 11:01:32;;;;;;;7.63;3.70;;;;;;;;;;5114954;28;20447;-61
2021/07/26 11:04:27;;;;;;;5.50;3.27;;;;;;;;;;5113466;28;20525;-61
2021/07/26 11:07:13;;;;;;;5.27;3.13;;;;;;;;;;5080428;28;20448;-61
2021/07/26 11:10:02;;;;;;;4.17;2.13;;;;;;;;;;5109136;28;20454;-63
2021/07/26 11:12:48;;;;;;;4.37;2.20;;;;;;;;;;5115504;28;20455;-60
2021/07/26 11:15:22;;;;;;;3.40;2.30;;;;;;;;;;5115704;28;20584;-60
2021/07/26 11:18:08;;;;;;;7.07;3.17;;;;;;;;;;5115529;28;20446;-59
2021/07/26 11:21:10;;;;;;;3.80;2.50;;;;;;;;;;5105841;28;20488;-60
2021/07/26 11:23:53;;;;;;;3.57;2.37;;;;;;;;;;5106428;28;20493;-59
2021/07/26 11:26:26;;;;;;;3.90;1.93;;;;;;;;;;5107208;28;20487;-61
2021/07/26 11:28:54;;;;;;;3.80;2.20;;;;;;;;;;5094128;28;20471;-60
2021/07/26 11:31:25;;;;;;;5.93;2.60;;;;;;;;;;5103832;28;20463;-61
2021/07/26 11:34:16;;;;;;;3.60;2.00;;;;;;;;;;5093995;28;20448;-60
2021/07/26 11:37:03;;;;;;;4.20;2.10;;;;;;;;;;5108226;28;20461;-61
2021/07/26 11:39:51;;;;;;;3.57;2.23;;;;;;;;;;5109043;28;20455;-59
2021/07/26 11:42:21;;;;;;;4.93;2.20;;;;;;;;;;5112012;28;20451;-60
2021/07/26 11:44:51;;;;;;;3.30;2.17;;;;;;;;;;5113375;28;20486;-62
2021/07/26 11:47:19;;;;;;;4.73;2.50;;;;;;;;;;5114921;28;20451;-60
2021/07/26 11:49:49;;;;;;;5.60;3.83;;;;;;;;;;5101256;28;20471;-60
2021/07/26 11:52:16;;;;;;;4.30;2.90;;;;;;;;;;5098054;28;20412;-59
2021/07/26 11:54:46;;;;;;;5.90;4.03;;;;;;;;;;5097825;28;20433;-60
2021/07/26 11:57:16;;;;;;;4.10;2.70;;;;;;;;;;5109995;28;20489;-61
2021/07/26 11:59:49;;;;;;;6.13;2.80;;;;;;;;;;5118808;28;20502;-64
2021/07/26 12:02:24;;;;;;;5.90;2.57;;;;;;;;;;5117721;28;20459;-60
2021/07/26 12:04:51;;;;;;;5.87;5.07;;;;;;;;;;5116926;28;20521;-60
2021/07/26 12:07:39;;;;;;;4.40;2.90;;;;;;;;;;5115511;28;20458;-61
2021/07/26 12:10:06;;;;;;;4.77;2.50;;;;;;;;;;5097175;28;20485;-60
2021/07/26 12:12:45;;;;;;;11.13;2.90;;;;;;;;;;5102646;28;20460;-60
2021/07/26 12:15:28;;;;;;;5.87;3.70;;;;;;;;;;5115749;28;20516;-61
2021/07/26 12:18:09;;;;;;;3.60;2.30;;;;;;;;;;5106531;28;20451;-60
2021/07/26 12:20:37;;;;;;;4.30;2.00;;;;;;;;;;5110882;28;20471;-61
2021/07/26 12:23:15;;;;;;;3.53;2.17;;;;;;;;;;5115858;28;20444;-60
2021/07/26 12:25:51;;;;;;;3.50;2.50;;;;;;;;;;5118404;28;20482;-61
2021/07/26 12:28:22;;;;;;;5.93;2.57;;;;;;;;;;5113187;28;20463;-62
2021/07/26 12:31:00;;;;;;;5.97;2.00;;;;;;;;;;5117076;28;20471;-61
2021/07/26 12:33:28;;;;;;;4.63;2.50;;;;;;;;;;5117181;28;20454;-61
2021/07/26 12:36:10;;;;;;;5.53;2.10;;;;;;;;;;5116647;28;20447;-60
2021/07/26 12:38:40;;;;;;;4.20;2.40;;;;;;;;;;5136969;28;20506;-61
2021/07/26 12:41:10;;;;;;;4.40;2.60;;;;;;;;;;5101792;28;20447;-60
2021/07/26 12:43:39;;;;;;;4.03;1.97;;;;;;;;;;5117090;28;20435;-60
2021/07/26 12:46:33;;;;;;;3.50;2.10;;;;;;;;;;5117022;28;20466;-60
2021/07/26 12:49:03;;;;;;;13.27;9.40;;;;;;;;;;5117146;28;20673;-60
2021/07/26 12:51:55;;;;;;;2.80;1.80;;;;;;;;;;5127386;28;20451;-60
2021/07/26 12:54:26;;;;;;;5.17;2.57;;;;;;;;;;5128630;28;20450;-60
2021/07/26 12:56:59;;;;;;;5.00;2.33;;;;;;;;;;5137379;28;20526;-59
2021/07/26 12:59:29;;;;;;;5.30;2.27;;;;;;;;;;5122361;28;20464;-60
2021/07/26 13:01:57;;;;;;;4.30;1.90;;;;;;;;;;5136242;28;20494;-60
2021/07/26 13:04:27;;;;;;;4.13;2.37;;;;;;;;;;5110373;28;20493;-61
2021/07/26 13:06:54;;;;;;;4.67;1.83;;;;;;;;;;5115414;28;20517;-60
2021/07/26 13:09:22;;;;;;;4.27;2.10;;;;;;;;;;5115851;28;20458;-61
2021/07/26 13:11:54;;;;;;;4.10;2.00;;;;;;;;;;5114827;28;20451;-61
2021/07/26 13:14:29;;;;;;;3.90;2.27;;;;;;;;;;5096839;28;20495;-61
2021/07/26 13:17:01;;;;;;;4.07;2.30;;;;;;;;;;5116447;28;20569;-63
2021/07/26 13:19:33;;;;;;;4.47;2.30;;;;;;;;;;5115662;28;20458;-61
2021/07/26 13:22:00;;;;;;;4.20;2.37;;;;;;;;;;5115070;28;20526;-61
2021/07/26 13:24:30;;;;;;;5.20;2.17;;;;;;;;;;5114726;28;20483;-61
2021/07/26 13:26:57;;;;;;;2.97;1.83;;;;;;;;;;5108845;28;20464;-59
2021/07/26 13:29:25;;;;;;;4.20;2.00;;;;;;;;;;5096185;28;20851;-60
2021/07/26 13:32:18;;;;;;;4.90;2.97;;;;;;;;;;5107614;28;20478;-62
2021/07/26 13:34:52;;;;;;;5.07;4.10;;;;;;;;;;5109406;28;20543;-60
2021/07/26 13:37:20;;;;;;;5.13;2.90;;;;;;;;;;5114866;28;20514;-60
2021/07/26 13:39:56;;;;;;;6.07;4.77;;;;;;;;;;5115127;28;20455;-61
2021/07/26 13:42:23;;;;;;;6.03;3.07;;;;;;;;;;5114970;28;20459;-61
2021/07/26 13:45:09;;;;;;;4.47;2.30;;;;;;;;;;5115039;28;20759;-61
2021/07/26 13:47:39;;;;;;;4.17;3.10;;;;;;;;;;5114040;28;20465;-60
2021/07/26 13:50:14;;;;;;;4.60;3.00;;;;;;;;;;5114246;28;20470;-60
2021/07/26 13:52:44;;;;;;;5.90;4.00;;;;;;;;;;5096214;28;20448;-61
2021/07/26 13:58:29;;;;;;;4.00;2.97;;;;;;;;;;5107772;28;20469;-60
2021/07/26 14:01:15;;;;;;;8.43;6.23;;;;;;;;;;5116066;28;20471;-61
2021/07/26 14:03:43;;;;;;;3.60;2.20;;;;;;;;;;5110075;28;20474;-60
2021/07/26 14:06:37;;;;;;;5.40;3.40;;;;;;;;;;5104757;28;20443;-61
2021/07/26 14:09:11;;;;;;;6.00;3.10;;;;;;;;;;5116428;28;20435;-60
2021/07/26 14:11:48;;;;;;;4.80;3.20;;;;;;;;;;5116143;28;20506;-59
2021/07/26 14:14:18;;;;;;;3.67;2.03;;;;;;;;;;5114968;28;20475;-60
2021/07/26 14:16:46;;;;;;;4.30;2.47;;;;;;;;;;5114214;28;20516;-59
2021/07/26 14:19:15;;;;;;;7.17;4.53;;;;;;;;;;5114810;28;20454;-61
2021/07/26 14:21:45;;;;;;;6.00;3.23;;;;;;;;;;5105418;28;20473;-59
2021/07/26 14:24:33;;;;;;;5.50;2.77;;;;;;;;;;5094823;28;20430;-60
2021/07/26 14:29:56;;;;;;;3.87;2.43;;;;;;;;;;5091071;28;20490;-60
2021/07/26 14:32:23;;;;;;;4.93;3.60;;;;;;;;;;5107322;28;20454;-61
2021/07/26 14:34:52;;;;;;;6.10;3.50;;;;;;;;;;5114443;28;20439;-59
2021/07/26 14:37:27;;;;;;;6.20;3.97;;;;;;;;;;5114164;28;20439;-60
2021/07/26 14:42:51;;;;;;;10.63;4.27;;;;;;;;;;5113897;28;20451;-61
2021/07/26 14:48:06;;;;;;;6.57;3.47;;;;;;;;;;5112992;28;20908;-60
2021/07/26 14:50:34;;;;;;;7.07;2.23;;;;;;;;;;5114895;28;20473;-61
2021/07/26 14:56:23;;;;;;;5.90;3.43;;;;;;;;;;5114254;28;20756;-61
2021/07/26 15:02:04;;;;;;;4.13;2.47;;;;;;;;;;5093311;28;20454;-61
2021/07/26 15:04:31;;;;;;;4.27;2.17;;;;;;;;;;5095323;28;20444;-59
2021/07/26 15:09:49;;;;;;;5.90;2.30;;;;;;;;;;5095195;28;20543;-59
2021/07/26 15:12:24;;;;;;;4.13;2.43;;;;;;;;;;5107081;28;20470;-60
2021/07/26 15:15:11;;;;;;;5.40;2.80;;;;;;;;;;5103457;28;20672;-61
2021/07/26 15:17:43;;;;;;;3.17;2.10;;;;;;;;;;5114237;28;20459;-60
2021/07/26 15:20:33;;;;;;;5.87;3.90;;;;;;;;;;5104419;28;20464;-60
2021/07/26 15:23:12;;;;;;;5.00;2.40;;;;;;;;;;5134616;28;20447;-60
2021/07/26 15:25:51;;;;;;;7.97;3.10;;;;;;;;;;5119251;28;20536;-62
2021/07/26 15:31:27;;;;;;;4.93;4.30;;;;;;;;;;5095280;28;20538;-59
2021/07/26 15:34:06;;;;;;;4.83;2.60;;;;;;;;;;5115928;28;20474;-60
2021/07/26 15:36:37;;;;;;;5.60;3.20;;;;;;;;;;5119805;28;20456;-60
2021/07/26 15:41:50;;;;;;;4.37;2.23;;;;;;;;;;5101730;28;20453;-60
2021/07/26 15:44:17;;;;;;;4.50;3.17;;;;;;;;;;5118191;28;20477;-60
2021/07/26 15:46:55;;;;;;;9.30;3.20;;;;;;;;;;5111452;28;20503;-60
2021/07/26 15:49:27;;;;;;;5.50;3.50;;;;;;;;;;5104562;28;20481;-61
2021/07/26 15:51:56;;;;;;;11.00;2.70;;;;;;;;;;5097685;28;20486;-58
2021/07/26 15:54:34;;;;;;;8.93;6.00;;;;;;;;;;5098446;28;20448;-59
2021/07/26 15:57:03;;;;;;;8.13;3.30;;;;;;;;;;5108370;28;20479;-60
2021/07/26 15:59:30;;;;;;;4.50;2.87;;;;;;;;;;5118131;28;20528;-59
2021/07/26 16:02:03;;;;;;;4.20;3.50;;;;;;;;;;5118214;28;20431;-60
2021/07/26 16:04:35;;;;;;;9.90;5.50;;;;;;;;;;5116631;28;20438;-60
2021/07/26 16:07:23;;;;;;;9.57;6.00;;;;;;;;;;5111811;28;20483;-60
2021/07/26 16:09:51;;;;;;;14.87;6.33;;;;;;;;;;5109472;28;20531;-61